createdAt,value
2023-08-07T05:01:15.831Z,11.20
2023-08-07T05:11:18.365Z,12.22
2023-08-07T05:21:20.837Z,12.89
2023-08-07T05:31:23.204Z,13.35
2023-08-07T05:41:25.654Z,13.72
2023-08-07T05:51:28.068Z,14.01
2023-08-07T06:01:32.562Z,14.11
2023-08-07T06:11:35.213Z,14.07
2023-08-07T06:21:37.604Z,14.04
2023-08-07T06:31:40.256Z,14.20
2023-08-07T06:41:42.921Z,14.44
2023-08-07T06:51:45.558Z,14.82
2023-08-07T07:01:48.144Z,15.05
2023-08-07T07:11:50.921Z,15.06
2023-08-07T07:21:53.398Z,15.46
2023-08-07T07:47:22.559Z,16.81
2023-08-07T07:57:26.028Z,16.48
2023-08-07T08:07:28.503Z,16.31
2023-08-07T08:17:31.018Z,16.56
2023-08-07T08:27:33.842Z,16.88
2023-08-07T08:37:36.604Z,17.08
2023-08-07T08:47:40.233Z,16.97
2023-08-07T08:57:43.173Z,17.06
2023-08-07T09:07:47.848Z,17.29
2023-08-07T09:17:52.376Z,18.00
2023-08-07T09:27:56.325Z,17.83
2023-08-07T09:37:59.662Z,17.86
2023-08-07T09:48:07.640Z,18.25
2023-08-07T09:58:14.475Z,18.64
2023-08-07T10:08:17.475Z,18.92
2023-08-07T10:18:22.912Z,18.67
2023-08-07T10:28:29.618Z,17.96
2023-08-07T10:38:32.951Z,17.94
2023-08-07T10:48:46.450Z,18.44
2023-08-07T10:58:53.191Z,18.55
2023-08-07T11:08:56.209Z,18.72
2023-08-07T11:18:58.863Z,19.22
2023-08-07T11:29:01.595Z,19.44
2023-08-07T11:39:05.034Z,18.73
2023-08-07T11:49:09.038Z,19.07
2023-08-07T11:59:11.981Z,19.17
2023-08-07T12:09:14.649Z,18.96
2023-08-07T12:19:17.841Z,19.09
2023-08-07T12:29:20.448Z,18.57
2023-08-07T12:39:58.046Z,18.22
2023-08-07T12:49:49.107Z,18.10
2023-08-07T12:59:54.582Z,18.04
2023-08-07T13:09:58.632Z,18.32
2023-08-07T13:20:02.850Z,18.70
2023-08-07T13:30:06.475Z,19.05
2023-08-07T13:40:09.861Z,19.03
2023-08-07T13:50:14.238Z,18.92
2023-08-07T14:00:17.193Z,18.54
2023-08-07T14:10:19.722Z,18.64
2023-08-07T14:20:23.466Z,18.89
2023-08-07T14:30:25.976Z,19.13
2023-08-07T14:40:29.329Z,19.00
2023-08-07T14:50:32.422Z,19.02
2023-08-07T15:00:36.541Z,19.06
2023-08-07T15:10:41.081Z,19.17
2023-08-07T15:39:02.163Z,18.36
2023-08-07T15:49:05.425Z,18.32
2023-08-07T15:59:07.895Z,17.95
2023-08-07T16:09:18.001Z,17.44
2023-08-07T16:19:20.765Z,17.15
2023-08-07T16:29:23.157Z,17.03
2023-08-07T16:39:25.618Z,16.74
2023-08-07T16:49:28.170Z,16.63
2023-08-07T16:59:30.927Z,16.61
2023-08-07T17:09:34.057Z,16.51
2023-08-07T17:19:36.881Z,16.11
2023-08-07T17:29:39.663Z,16.05
2023-08-07T17:39:42.110Z,16.02
2023-08-07T17:49:44.571Z,15.75
2023-08-07T17:59:48.254Z,15.64
2023-08-07T18:09:50.692Z,15.42
2023-08-07T18:19:53.906Z,15.18
2023-08-07T18:29:56.829Z,14.92
2023-08-07T18:40:01.374Z,14.83
2023-08-07T18:50:04.456Z,14.54
2023-08-07T19:00:12.720Z,14.52
2023-08-07T19:10:16.385Z,14.40
2023-08-07T19:20:19.079Z,14.23
2023-08-07T19:30:21.689Z,14.11
2023-08-07T19:40:28.785Z,13.90
2023-08-07T19:50:31.217Z,13.79
2023-08-07T20:00:33.628Z,13.65
2023-08-07T20:20:15.813Z,13.41
2023-08-07T20:30:18.332Z,13.26
2023-08-07T20:40:20.816Z,13.25
2023-08-07T20:50:24.665Z,13.14
2023-08-07T21:10:10.998Z,13.12
2023-08-07T21:20:14.080Z,13.13
2023-08-07T21:30:16.535Z,13.16
2023-08-07T21:40:19.306Z,13.15
2023-08-07T21:50:22.185Z,13.09
2023-08-07T22:00:24.560Z,13.08
2023-08-07T22:10:27.206Z,13.27
2023-08-07T22:20:29.710Z,13.34
2023-08-07T22:30:32.119Z,13.14
2023-08-07T22:40:34.621Z,13.04
2023-08-07T22:50:37.066Z,13.11
2023-08-07T23:00:39.639Z,13.22
2023-08-07T23:10:42.114Z,13.19
2023-08-07T23:20:44.442Z,13.09
2023-08-07T23:30:46.805Z,12.82
2023-08-07T23:40:49.250Z,12.74
2023-08-07T23:50:51.645Z,12.64
